createdAt,value
2023-10-05T00:01:57.375Z,15.47
2023-10-05T00:04:28.298Z,15.47
2023-10-05T00:06:56.992Z,15.49
2023-10-05T00:09:26.037Z,15.46
2023-10-05T00:11:58.778Z,15.44
2023-10-05T00:14:26.926Z,15.45
2023-10-05T00:16:56.655Z,15.45
2023-10-05T00:19:28.867Z,15.44
2023-10-05T00:21:58.415Z,15.43
2023-10-05T00:24:31.234Z,15.42
2023-10-05T00:27:00.860Z,15.41
2023-10-05T00:29:30.548Z,15.41
2023-10-05T00:32:01.702Z,15.41
2023-10-05T00:34:30.255Z,15.39
2023-10-05T00:37:01.131Z,15.36
2023-10-05T00:39:33.018Z,15.37
2023-10-05T00:42:10.259Z,15.36
2023-10-05T00:44:41.515Z,15.36
2023-10-05T00:47:13.407Z,15.34
2023-10-05T00:49:53.563Z,15.34
2023-10-05T00:52:26.219Z,15.33
2023-10-05T00:54:56.618Z,15.32
2023-10-05T00:57:26.473Z,15.31
2023-10-05T01:00:14.919Z,15.30
2023-10-05T01:03:05.121Z,15.27
2023-10-05T01:05:49.050Z,15.29
2023-10-05T01:08:24.357Z,15.26
2023-10-05T01:10:55.556Z,15.26
2023-10-05T01:13:35.053Z,15.23
2023-10-05T01:16:17.238Z,15.26
2023-10-05T01:18:46.290Z,15.24
2023-10-05T01:21:14.762Z,15.23
2023-10-05T01:23:45.903Z,15.22
2023-10-05T01:26:14.394Z,15.21
2023-10-05T01:28:43.418Z,15.24
2023-10-05T01:31:19.000Z,15.21
2023-10-05T01:33:48.277Z,15.23
2023-10-05T01:36:19.041Z,15.20
2023-10-05T01:38:50.006Z,15.21
2023-10-05T01:41:22.774Z,15.21
2023-10-05T01:43:53.293Z,15.22
2023-10-05T01:46:22.679Z,15.21
2023-10-05T01:48:53.230Z,15.22
2023-10-05T01:51:26.661Z,15.21
2023-10-05T01:54:02.643Z,15.21
2023-10-05T01:56:31.233Z,15.20
2023-10-05T01:59:01.712Z,15.20
2023-10-05T02:01:30.515Z,15.17
2023-10-05T02:04:00.823Z,15.18
2023-10-05T02:06:30.694Z,15.18
2023-10-05T02:09:00.376Z,15.17
2023-10-05T02:11:29.422Z,15.17
2023-10-05T02:14:05.412Z,15.19
2023-10-05T02:16:34.338Z,15.17
2023-10-05T02:19:05.036Z,15.17
2023-10-05T02:21:37.557Z,15.16
2023-10-05T02:24:18.007Z,15.16
2023-10-05T02:27:10.785Z,15.17
2023-10-05T02:29:44.012Z,15.15
2023-10-05T02:32:13.075Z,15.12
2023-10-05T02:34:43.555Z,15.10
2023-10-05T02:37:12.935Z,15.11
2023-10-05T02:39:43.730Z,15.13
2023-10-05T02:42:14.987Z,15.11
2023-10-05T02:44:44.327Z,15.09
2023-10-05T02:47:14.850Z,15.09
2023-10-05T02:49:46.014Z,15.07
2023-10-05T02:52:17.177Z,15.07
2023-10-05T02:54:49.527Z,15.07
2023-10-05T02:57:18.755Z,15.05
2023-10-05T02:59:47.171Z,15.06
2023-10-05T03:02:18.159Z,15.05
2023-10-05T03:04:48.778Z,15.05
2023-10-05T03:07:19.265Z,15.05
2023-10-05T03:09:50.573Z,15.05
2023-10-05T03:12:21.938Z,15.06
2023-10-05T03:14:52.168Z,15.03
2023-10-05T03:17:22.351Z,15.05
2023-10-05T03:19:51.669Z,15.00
2023-10-05T03:22:25.717Z,15.02
2023-10-05T03:24:57.652Z,15.02
2023-10-05T03:27:27.561Z,15.02
2023-10-05T03:30:02.123Z,14.98
2023-10-05T03:32:31.251Z,14.99
2023-10-05T03:35:00.484Z,14.98
2023-10-05T03:37:31.048Z,14.96
2023-10-05T03:40:08.955Z,14.96
2023-10-05T03:42:37.345Z,14.94
2023-10-05T03:45:11.226Z,14.90
2023-10-05T03:47:40.127Z,14.88
2023-10-05T03:50:10.093Z,14.90
2023-10-05T03:52:38.927Z,14.89
2023-10-05T03:55:11.537Z,14.90
2023-10-05T03:57:39.924Z,14.88
2023-10-05T04:00:20.319Z,14.86
2023-10-05T04:02:48.967Z,14.86
2023-10-05T04:05:19.775Z,14.83
2023-10-05T04:07:49.336Z,14.85
2023-10-05T04:10:25.113Z,14.85
2023-10-05T04:12:56.177Z,14.83
2023-10-05T04:15:27.100Z,14.84
2023-10-05T04:17:55.486Z,14.82
2023-10-05T04:20:29.540Z,14.82
2023-10-05T04:22:58.117Z,14.81
2023-10-05T04:25:27.971Z,14.83
2023-10-05T04:27:56.958Z,14.79
2023-10-05T04:30:25.448Z,14.81
2023-10-05T04:32:53.886Z,14.79
2023-10-05T04:35:24.645Z,14.77
2023-10-05T04:37:52.858Z,14.76
2023-10-05T04:40:25.711Z,14.75
2023-10-05T04:43:00.483Z,14.75
2023-10-05T04:45:29.624Z,14.73
2023-10-05T04:48:00.344Z,14.71
2023-10-05T04:50:29.120Z,14.71
2023-10-05T04:52:59.623Z,14.69
2023-10-05T04:55:34.309Z,14.65
2023-10-05T04:58:25.737Z,14.63
2023-10-05T05:01:16.932Z,14.63
2023-10-05T05:03:57.796Z,14.60
2023-10-05T05:06:28.679Z,14.58
2023-10-05T05:08:56.988Z,14.60
2023-10-05T05:11:26.974Z,14.59
2023-10-05T05:13:56.641Z,14.57
2023-10-05T05:16:25.018Z,14.61
2023-10-05T05:18:57.056Z,14.60
2023-10-05T05:21:25.357Z,14.59
2023-10-05T05:23:53.604Z,14.59
2023-10-05T05:26:21.905Z,14.59
2023-10-05T05:28:50.791Z,14.56
2023-10-05T05:31:22.703Z,14.59
2023-10-05T05:33:50.972Z,14.58
2023-10-05T05:36:19.286Z,14.59
2023-10-05T05:38:50.757Z,14.59
2023-10-05T05:41:20.573Z,14.54
2023-10-05T05:43:49.384Z,14.61
2023-10-05T05:46:19.113Z,14.60
2023-10-05T05:48:54.097Z,14.57
2023-10-05T05:51:25.791Z,14.62
2023-10-05T05:53:54.098Z,14.62
2023-10-05T05:56:30.343Z,14.66
2023-10-05T05:58:58.928Z,14.68
2023-10-05T06:01:27.636Z,14.68
2023-10-05T06:03:57.694Z,14.66
2023-10-05T06:06:25.942Z,14.68
2023-10-05T06:08:54.100Z,14.68
2023-10-05T06:11:22.219Z,14.71
2023-10-05T06:13:50.483Z,14.71
2023-10-05T06:16:19.234Z,14.73
2023-10-05T06:18:47.539Z,14.73
2023-10-05T06:21:17.583Z,14.73
2023-10-05T06:23:45.792Z,14.73
2023-10-05T06:26:14.077Z,14.70
2023-10-05T06:28:42.346Z,14.68
2023-10-05T06:31:13.657Z,14.67
2023-10-05T06:33:43.964Z,14.66
2023-10-05T06:36:12.130Z,14.65
2023-10-05T06:38:45.731Z,14.66
2023-10-05T06:41:14.295Z,14.68
2023-10-05T06:43:43.908Z,14.67
2023-10-05T06:46:18.945Z,14.68
2023-10-05T06:48:47.207Z,14.70
2023-10-05T06:51:24.284Z,14.72
2023-10-05T06:53:54.126Z,14.72
2023-10-05T06:56:22.918Z,14.72
2023-10-05T06:58:51.212Z,14.77
2023-10-05T07:01:22.052Z,14.74
2023-10-05T07:03:54.129Z,14.74
2023-10-05T07:06:26.027Z,14.75
2023-10-05T07:08:55.708Z,14.76
2023-10-05T07:11:25.666Z,14.76
2023-10-05T07:13:53.967Z,14.76
2023-10-05T07:16:22.184Z,14.78
2023-10-05T07:18:51.101Z,14.78
2023-10-05T07:21:19.393Z,14.78
2023-10-05T07:23:48.323Z,14.78
2023-10-05T07:26:17.938Z,14.79
2023-10-05T07:28:46.189Z,14.79
2023-10-05T07:31:14.452Z,14.77
2023-10-05T07:33:42.813Z,14.83
2023-10-05T07:36:11.502Z,14.82
2023-10-05T07:38:40.442Z,14.85
2023-10-05T07:41:08.870Z,14.82
2023-10-05T07:43:39.668Z,14.80
2023-10-05T07:46:08.419Z,14.84
2023-10-05T07:48:37.438Z,14.87
2023-10-05T07:51:07.597Z,14.87
2023-10-05T07:53:35.806Z,14.87
2023-10-05T07:56:04.023Z,14.84
2023-10-05T07:58:33.092Z,14.84
2023-10-05T08:01:03.025Z,14.82
2023-10-05T08:03:31.388Z,14.84
2023-10-05T08:05:59.683Z,14.80
2023-10-05T08:08:28.031Z,14.80
2023-10-05T08:10:56.226Z,14.80
2023-10-05T08:13:27.189Z,14.82
2023-10-05T08:15:55.428Z,14.83
2023-10-05T08:18:26.884Z,14.87
2023-10-05T08:20:56.158Z,14.90
2023-10-05T08:23:24.343Z,14.92
2023-10-05T08:25:52.532Z,14.92
2023-10-05T08:28:22.058Z,14.93
2023-10-05T08:31:06.735Z,14.93
2023-10-05T08:33:36.870Z,14.93
2023-10-05T08:36:07.961Z,14.94
2023-10-05T08:38:37.199Z,14.96
2023-10-05T08:41:09.061Z,14.99
2023-10-05T08:43:40.851Z,15.01
2023-10-05T08:46:12.176Z,15.03
2023-10-05T08:48:42.483Z,15.03
2023-10-05T08:51:12.252Z,15.03
2023-10-05T08:53:45.244Z,15.03
2023-10-05T08:56:16.977Z,15.08
2023-10-05T08:58:47.825Z,15.12
2023-10-05T09:01:28.987Z,15.16
2023-10-05T09:04:13.757Z,15.17
2023-10-05T09:06:50.168Z,15.22
2023-10-05T09:09:20.807Z,15.24
2023-10-05T09:11:49.025Z,15.28
2023-10-05T09:14:24.824Z,15.29
2023-10-05T09:16:57.328Z,15.33
2023-10-05T09:19:36.904Z,15.36
2023-10-05T09:22:13.963Z,15.34
2023-10-05T09:24:45.075Z,15.31
2023-10-05T09:27:16.007Z,15.32
2023-10-05T09:29:45.811Z,15.33
2023-10-05T09:32:37.963Z,15.34
2023-10-05T09:35:11.612Z,15.34
2023-10-05T09:37:42.258Z,15.37
2023-10-05T09:40:17.350Z,15.36
2023-10-05T09:42:49.221Z,15.37
2023-10-05T09:45:19.016Z,15.40
2023-10-05T09:47:49.199Z,15.45
2023-10-05T09:50:23.167Z,15.47
2023-10-05T09:52:53.252Z,15.49
2023-10-05T09:55:22.424Z,15.51
2023-10-05T09:57:55.266Z,15.59
2023-10-05T10:00:49.016Z,15.66
2023-10-05T10:03:18.798Z,15.66
2023-10-05T10:05:53.244Z,15.69
2023-10-05T10:08:24.930Z,15.71
2023-10-05T10:11:04.830Z,15.73
2023-10-05T10:13:38.777Z,15.76
2023-10-05T10:16:23.129Z,15.72
2023-10-05T10:18:54.302Z,15.76
2023-10-05T10:21:33.937Z,15.75
2023-10-05T10:24:05.968Z,15.77
2023-10-05T10:26:38.569Z,15.78
2023-10-05T10:31:49.444Z,15.77
2023-10-05T10:34:44.442Z,15.82
2023-10-05T10:37:40.608Z,15.83
2023-10-05T10:40:16.217Z,15.85
2023-10-05T10:42:50.656Z,15.84
2023-10-05T10:45:24.710Z,15.84
2023-10-05T10:47:55.270Z,15.85
2023-10-05T10:50:30.488Z,15.86
2023-10-05T10:53:00.694Z,15.87
2023-10-05T10:55:37.011Z,15.88
2023-10-05T10:58:09.983Z,15.89
2023-10-05T11:00:56.105Z,15.91
2023-10-05T11:03:27.940Z,15.94
2023-10-05T11:05:56.833Z,15.95
2023-10-05T11:08:32.083Z,15.97
2023-10-05T11:11:01.622Z,16.00
2023-10-05T11:13:30.034Z,16.03
2023-10-05T11:16:01.253Z,16.09
2023-10-05T11:18:32.336Z,16.14
2023-10-05T11:21:12.466Z,16.19
2023-10-05T11:23:49.542Z,16.27
2023-10-05T11:26:30.222Z,16.32
2023-10-05T11:29:01.021Z,16.46
2023-10-05T11:31:58.609Z,16.51
2023-10-05T11:34:35.539Z,16.59
2023-10-05T11:37:16.879Z,16.69
2023-10-05T11:39:50.954Z,16.78
2023-10-05T11:42:26.044Z,16.86
2023-10-05T11:44:57.448Z,16.98
2023-10-05T11:47:34.167Z,17.02
2023-10-05T11:50:08.970Z,17.04
2023-10-05T11:52:39.686Z,17.08
2023-10-05T11:55:13.580Z,17.06
2023-10-05T11:57:41.955Z,17.06
2023-10-05T12:00:13.920Z,17.04
2023-10-05T12:02:44.501Z,17.05
2023-10-05T12:05:15.954Z,17.09
2023-10-05T12:07:47.374Z,17.13
2023-10-05T12:10:17.162Z,17.21
2023-10-05T12:12:51.795Z,17.28
2023-10-05T12:15:24.072Z,17.36
2023-10-05T12:17:52.262Z,17.40
2023-10-05T12:20:20.801Z,17.40
2023-10-05T12:22:51.191Z,17.47
2023-10-05T12:25:25.693Z,17.54
2023-10-05T12:27:54.387Z,17.58
2023-10-05T12:30:23.107Z,17.61
2023-10-05T12:32:52.715Z,17.72
2023-10-05T12:35:20.725Z,17.72
2023-10-05T12:37:49.279Z,17.77
2023-10-05T12:40:27.979Z,17.82
2023-10-05T12:45:29.506Z,18.06
2023-10-05T12:47:57.894Z,18.19
2023-10-05T12:50:27.364Z,18.34
2023-10-05T12:52:55.667Z,18.44
2023-10-05T12:55:24.773Z,18.62
2023-10-05T12:57:53.936Z,18.70
2023-10-05T13:00:29.333Z,18.80
2023-10-05T13:03:01.092Z,18.70
2023-10-05T13:05:35.829Z,18.72
2023-10-05T13:08:04.147Z,18.68
2023-10-05T13:10:34.302Z,18.69
2023-10-05T13:13:03.391Z,18.80
2023-10-05T13:15:36.289Z,18.82
2023-10-05T13:18:19.291Z,18.76
2023-10-05T13:20:49.693Z,18.69
2023-10-05T13:23:20.391Z,18.63
2023-10-05T13:25:50.590Z,18.61
2023-10-05T13:28:19.233Z,18.65
2023-10-05T13:30:51.745Z,18.65
2023-10-05T13:33:22.986Z,18.64
2023-10-05T13:35:52.264Z,18.64
2023-10-05T13:38:25.744Z,18.61
2023-10-05T13:41:14.899Z,18.57
2023-10-05T13:43:43.795Z,18.67
2023-10-05T13:46:17.731Z,18.71
2023-10-05T13:48:46.642Z,18.77
2023-10-05T13:51:17.517Z,18.81
2023-10-05T13:53:46.925Z,18.81
2023-10-05T13:56:15.473Z,18.77
2023-10-05T13:58:45.427Z,18.77
2023-10-05T14:01:17.462Z,18.65
2023-10-05T14:03:49.456Z,18.55
2023-10-05T14:06:17.880Z,18.50
2023-10-05T14:08:47.391Z,18.39
2023-10-05T14:11:15.676Z,18.29
2023-10-05T14:13:44.809Z,18.22
2023-10-05T14:16:15.359Z,18.09
2023-10-05T14:18:43.515Z,18.00
2023-10-05T14:21:11.815Z,17.94
2023-10-05T14:23:39.724Z,17.85
2023-10-05T14:26:07.962Z,17.81
2023-10-05T14:28:35.883Z,17.79
2023-10-05T14:31:05.340Z,17.76
2023-10-05T14:33:34.944Z,17.81
2023-10-05T14:36:02.893Z,17.80
2023-10-05T14:38:31.047Z,17.75
2023-10-05T14:41:00.166Z,17.83
2023-10-05T14:43:32.614Z,17.86
2023-10-05T14:46:01.685Z,17.88
2023-10-05T14:48:32.046Z,17.92
2023-10-05T14:51:03.050Z,17.98
2023-10-05T14:53:31.201Z,18.03
2023-10-05T14:55:59.420Z,18.06
2023-10-05T14:58:28.519Z,18.12
2023-10-05T15:00:58.131Z,18.17
2023-10-05T15:03:27.005Z,18.20
2023-10-05T15:05:54.984Z,18.23
2023-10-05T15:08:24.207Z,18.26
2023-10-05T15:10:52.243Z,18.33
2023-10-05T15:13:21.692Z,18.30
2023-10-05T15:15:51.326Z,18.29
2023-10-05T15:18:20.920Z,18.34
2023-10-05T15:20:48.923Z,18.32
2023-10-05T15:23:16.992Z,18.26
2023-10-05T15:25:46.308Z,18.17
2023-10-05T15:28:17.582Z,18.13
2023-10-05T15:30:47.796Z,18.10
2023-10-05T15:33:15.694Z,18.11
2023-10-05T15:35:43.560Z,18.14
2023-10-05T15:38:11.478Z,18.21
2023-10-05T15:40:39.746Z,18.27
2023-10-05T15:43:08.976Z,18.32
2023-10-05T15:45:36.973Z,18.39
2023-10-05T15:48:10.679Z,18.44
2023-10-05T15:50:40.795Z,18.50
2023-10-05T15:53:11.008Z,18.44
2023-10-05T15:55:39.009Z,18.43
2023-10-05T15:58:10.791Z,18.43
2023-10-05T16:00:39.672Z,18.36
2023-10-05T16:03:11.605Z,18.33
2023-10-05T16:05:40.776Z,18.28
2023-10-05T16:08:09.550Z,18.26
2023-10-05T16:10:39.892Z,18.21
2023-10-05T16:13:10.157Z,18.18
2023-10-05T16:15:40.278Z,18.18
2023-10-05T16:18:11.646Z,18.14
2023-10-05T16:20:42.383Z,18.12
2023-10-05T16:23:12.725Z,18.11
2023-10-05T16:25:41.811Z,18.08
2023-10-05T16:28:11.444Z,18.07
2023-10-05T16:30:39.635Z,18.02
2023-10-05T16:33:08.424Z,18.03
2023-10-05T16:35:36.735Z,17.97
2023-10-05T16:38:06.243Z,17.96
2023-10-05T16:40:34.904Z,17.93
2023-10-05T16:43:03.708Z,17.93
2023-10-05T16:45:33.137Z,17.92
2023-10-05T16:48:01.224Z,17.86
2023-10-05T16:50:30.760Z,17.90
2023-10-05T16:52:58.654Z,17.87
2023-10-05T16:55:26.699Z,17.93
2023-10-05T16:57:54.835Z,17.93
2023-10-05T17:00:24.938Z,17.90
2023-10-05T17:02:56.006Z,17.88
2023-10-05T17:05:27.190Z,17.87
2023-10-05T17:07:56.760Z,17.88
2023-10-05T17:10:25.292Z,17.84
2023-10-05T17:12:55.304Z,17.81
2023-10-05T17:15:23.679Z,17.82
2023-10-05T17:17:52.086Z,17.78
2023-10-05T17:20:22.260Z,17.75
2023-10-05T17:22:50.384Z,17.75
2023-10-05T17:25:18.689Z,17.73
2023-10-05T17:27:46.758Z,17.72
2023-10-05T17:30:16.076Z,17.67
2023-10-05T17:32:47.417Z,17.64
2023-10-05T17:35:23.548Z,17.64
2023-10-05T17:37:54.264Z,17.66
2023-10-05T17:40:22.777Z,17.62
2023-10-05T17:42:50.979Z,17.60
2023-10-05T17:45:20.211Z,17.57
2023-10-05T17:47:50.474Z,17.55
2023-10-05T17:50:18.537Z,17.52
2023-10-05T17:52:47.040Z,17.48
2023-10-05T17:55:17.757Z,17.46
2023-10-05T17:57:45.725Z,17.43
2023-10-05T18:00:17.171Z,17.42
2023-10-05T18:02:46.064Z,17.43
2023-10-05T18:05:17.105Z,17.42
2023-10-05T18:07:45.685Z,17.43
2023-10-05T18:10:13.732Z,17.39
2023-10-05T18:12:42.988Z,17.37
2023-10-05T18:15:11.550Z,17.40
2023-10-05T18:17:40.862Z,17.37
2023-10-05T18:20:09.794Z,17.33
2023-10-05T18:22:39.003Z,17.31
2023-10-05T18:25:08.346Z,17.33
2023-10-05T18:27:36.352Z,17.35
2023-10-05T18:30:07.393Z,17.32
2023-10-05T18:32:36.231Z,17.30
2023-10-05T18:35:04.462Z,17.31
2023-10-05T18:37:32.469Z,17.29
2023-10-05T18:40:01.552Z,17.27
2023-10-05T18:42:29.500Z,17.26
2023-10-05T18:44:58.805Z,17.25
2023-10-05T18:47:28.278Z,17.24
2023-10-05T18:49:56.258Z,17.26
2023-10-05T18:52:24.277Z,17.24
2023-10-05T18:54:52.268Z,17.26
2023-10-05T18:57:20.165Z,17.25
2023-10-05T18:59:48.106Z,17.26
2023-10-05T19:02:16.104Z,17.26
2023-10-05T19:04:45.515Z,17.26
2023-10-05T19:07:14.226Z,17.25
2023-10-05T19:09:42.120Z,17.25
2023-10-05T19:12:10.023Z,17.24
2023-10-05T19:14:37.999Z,17.27
2023-10-05T19:17:05.900Z,17.26
2023-10-05T19:19:33.931Z,17.28
2023-10-05T19:22:05.758Z,17.28
2023-10-05T19:24:34.001Z,17.27
2023-10-05T19:27:01.881Z,17.28
2023-10-05T19:29:31.731Z,17.30
2023-10-05T19:31:59.994Z,17.28
2023-10-05T19:34:28.019Z,17.28
2023-10-05T19:36:56.195Z,17.28
2023-10-05T19:39:26.240Z,17.28
2023-10-05T19:41:54.457Z,17.30
2023-10-05T19:44:25.086Z,17.29
2023-10-05T19:46:53.647Z,17.28
2023-10-05T19:49:26.287Z,17.29
2023-10-05T19:51:54.899Z,17.31
2023-10-05T19:54:23.338Z,17.34
2023-10-05T19:56:52.852Z,17.33
2023-10-05T19:59:21.433Z,17.35
2023-10-05T20:01:50.791Z,17.35
2023-10-05T20:04:18.974Z,17.35
2023-10-05T20:06:47.062Z,17.36
2023-10-05T20:09:15.305Z,17.37
2023-10-05T20:11:43.276Z,17.37
2023-10-05T20:14:13.390Z,17.37
2023-10-05T20:16:41.363Z,17.36
2023-10-05T20:19:11.600Z,17.40
2023-10-05T20:21:40.911Z,17.38
2023-10-05T20:24:09.348Z,17.37
2023-10-05T20:26:38.101Z,17.35
2023-10-05T20:29:06.101Z,17.32
2023-10-05T20:31:35.508Z,17.33
2023-10-05T20:34:03.400Z,17.31
2023-10-05T20:36:31.424Z,17.32
2023-10-05T20:38:59.283Z,17.33
2023-10-05T20:41:27.155Z,17.32
2023-10-05T20:43:55.137Z,17.35
2023-10-05T20:46:23.392Z,17.36
2023-10-05T20:48:52.780Z,17.35
2023-10-05T20:51:21.245Z,17.32
2023-10-05T20:53:49.115Z,17.33
2023-10-05T20:56:17.759Z,17.34
2023-10-05T20:58:45.679Z,17.34
2023-10-05T21:01:13.736Z,17.36
2023-10-05T21:03:41.762Z,17.37
2023-10-05T21:06:11.011Z,17.38
2023-10-05T21:08:41.666Z,17.37
2023-10-05T21:11:09.577Z,17.41
2023-10-05T21:13:37.581Z,17.40
2023-10-05T21:16:05.683Z,17.40
2023-10-05T21:18:33.568Z,17.40
2023-10-05T21:21:01.494Z,17.42
2023-10-05T21:23:31.154Z,17.42
2023-10-05T21:25:59.769Z,17.41
2023-10-05T21:28:28.427Z,17.41
2023-10-05T21:30:56.520Z,17.42
2023-10-05T21:33:24.440Z,17.42
2023-10-05T21:35:52.357Z,17.42
2023-10-05T21:38:20.284Z,17.44
2023-10-05T21:40:49.664Z,17.42
2023-10-05T21:43:17.606Z,17.41
2023-10-05T21:45:45.575Z,17.41
2023-10-05T21:48:13.524Z,17.42
2023-10-05T21:50:41.389Z,17.41
2023-10-05T21:53:10.030Z,17.43
2023-10-05T21:55:37.995Z,17.41
2023-10-05T21:58:07.265Z,17.41
2023-10-05T22:00:49.017Z,17.42
2023-10-05T22:03:17.994Z,17.42
2023-10-05T22:05:47.222Z,17.43
2023-10-05T22:08:17.270Z,17.44
2023-10-05T22:10:46.222Z,17.41
2023-10-05T22:13:16.006Z,17.42
2023-10-05T22:15:44.110Z,17.43
2023-10-05T22:18:12.865Z,17.43
2023-10-05T22:20:41.970Z,17.42
2023-10-05T22:23:11.034Z,17.41
2023-10-05T22:25:39.695Z,17.41
2023-10-05T22:28:08.874Z,17.40
2023-10-05T22:30:39.332Z,17.42
2023-10-05T22:33:07.551Z,17.41
2023-10-05T22:35:37.138Z,17.40
2023-10-05T22:38:05.460Z,17.40
2023-10-05T22:40:35.453Z,17.38
2023-10-05T22:43:03.666Z,17.39
2023-10-05T22:45:31.865Z,17.39
2023-10-05T22:48:01.229Z,17.40
2023-10-05T22:50:29.194Z,17.41
2023-10-05T22:52:57.515Z,17.40
2023-10-05T22:55:26.119Z,17.43
2023-10-05T22:57:55.467Z,17.42
2023-10-05T23:00:23.630Z,17.41
2023-10-05T23:02:51.999Z,17.38
2023-10-05T23:05:21.579Z,17.40
2023-10-05T23:07:49.480Z,17.41
2023-10-05T23:10:17.642Z,17.43
2023-10-05T23:12:45.641Z,17.42
2023-10-05T23:15:13.601Z,17.42
2023-10-05T23:17:41.606Z,17.42
2023-10-05T23:20:12.659Z,17.43
2023-10-05T23:22:42.913Z,17.44
2023-10-05T23:25:22.553Z,17.44
2023-10-05T23:27:51.394Z,17.43
2023-10-05T23:30:20.236Z,17.46
2023-10-05T23:32:49.101Z,17.45
2023-10-05T23:35:17.830Z,17.45
2023-10-05T23:37:52.405Z,17.45
2023-10-05T23:40:21.892Z,17.45
2023-10-05T23:42:49.871Z,17.45
2023-10-05T23:45:19.370Z,17.45
2023-10-05T23:47:49.500Z,17.44
2023-10-05T23:50:26.863Z,17.47
2023-10-05T23:52:57.094Z,17.47
2023-10-05T23:55:25.688Z,17.47
2023-10-05T23:57:54.007Z,17.46
